sensor_id;sensor_type;location;lat;lon;timestamp;P1;durP1;ratioP1;P2;durP2;ratioP2
28335;SDS011;15592;53.656;7.276;2023-11-21T00:01:01;9.30;;;3.78;;
28335;SDS011;15592;53.656;7.276;2023-11-21T00:03:28;11.32;;;4.05;;
28335;SDS011;15592;53.656;7.276;2023-11-21T00:05:54;13.63;;;4.65;;
28335;SDS011;15592;53.656;7.276;2023-11-21T00:08:20;10.68;;;4.63;;
28335;SDS011;15592;53.656;7.276;2023-11-21T00:10:46;7.15;;;3.72;;
28335;SDS011;15592;53.656;7.276;2023-11-21T00:13:11;5.32;;;3.42;;
28335;SDS011;15592;53.656;7.276;2023-11-21T00:15:37;6.28;;;3.10;;
28335;SDS011;15592;53.656;7.276;2023-11-21T00:18:03;7.53;;;2.97;;
28335;SDS011;15592;53.656;7.276;2023-11-21T00:20:28;6.10;;;3.30;;
28335;SDS011;15592;53.656;7.276;2023-11-21T00:22:54;6.20;;;3.13;;
28335;SDS011;15592;53.656;7.276;2023-11-21T00:25:19;4.88;;;2.97;;
28335;SDS011;15592;53.656;7.276;2023-11-21T00:27:45;6.75;;;3.05;;
28335;SDS011;15592;53.656;7.276;2023-11-21T00:30:11;8.05;;;2.92;;
28335;SDS011;15592;53.656;7.276;2023-11-21T00:32:37;7.57;;;3.55;;
28335;SDS011;15592;53.656;7.276;2023-11-21T00:35:03;7.60;;;3.47;;
28335;SDS011;15592;53.656;7.276;2023-11-21T00:37:29;11.77;;;3.60;;
28335;SDS011;15592;53.656;7.276;2023-11-21T00:39:57;10.25;;;3.72;;
28335;SDS011;15592;53.656;7.276;2023-11-21T00:42:22;6.28;;;3.60;;
28335;SDS011;15592;53.656;7.276;2023-11-21T00:44:48;5.30;;;3.50;;
28335;SDS011;15592;53.656;7.276;2023-11-21T00:47:14;5.45;;;2.97;;
28335;SDS011;15592;53.656;7.276;2023-11-21T00:49:39;8.18;;;3.40;;
28335;SDS011;15592;53.656;7.276;2023-11-21T00:52:06;4.82;;;2.78;;
28335;SDS011;15592;53.656;7.276;2023-11-21T00:54:32;4.72;;;2.58;;
28335;SDS011;15592;53.656;7.276;2023-11-21T00:56:58;4.32;;;2.55;;
28335;SDS011;15592;53.656;7.276;2023-11-21T00:59:24;4.13;;;2.30;;
28335;SDS011;15592;53.656;7.276;2023-11-21T01:01:49;2.78;;;2.20;;
28335;SDS011;15592;53.656;7.276;2023-11-21T01:04:15;4.78;;;2.40;;
28335;SDS011;15592;53.656;7.276;2023-11-21T01:06:41;4.20;;;2.40;;
28335;SDS011;15592;53.656;7.276;2023-11-21T01:09:06;6.30;;;3.05;;
28335;SDS011;15592;53.656;7.276;2023-11-21T01:11:35;7.85;;;3.25;;
28335;SDS011;15592;53.656;7.276;2023-11-21T01:14:01;7.05;;;3.05;;
28335;SDS011;15592;53.656;7.276;2023-11-21T01:16:28;7.07;;;3.30;;
28335;SDS011;15592;53.656;7.276;2023-11-21T01:18:54;7.05;;;3.00;;
28335;SDS011;15592;53.656;7.276;2023-11-21T01:21:20;7.15;;;3.40;;
28335;SDS011;15592;53.656;7.276;2023-11-21T01:23:45;12.00;;;3.65;;
28335;SDS011;15592;53.656;7.276;2023-11-21T01:26:12;9.20;;;3.83;;
28335;SDS011;15592;53.656;7.276;2023-11-21T01:28:38;5.80;;;3.03;;
28335;SDS011;15592;53.656;7.276;2023-11-21T01:31:03;5.95;;;3.33;;
28335;SDS011;15592;53.656;7.276;2023-11-21T01:33:29;8.93;;;4.15;;
28335;SDS011;15592;53.656;7.276;2023-11-21T01:35:55;15.90;;;5.20;;
28335;SDS011;15592;53.656;7.276;2023-11-21T01:38:21;15.63;;;5.60;;
28335;SDS011;15592;53.656;7.276;2023-11-21T01:40:47;13.30;;;4.90;;
28335;SDS011;15592;53.656;7.276;2023-11-21T01:43:13;14.38;;;4.65;;
28335;SDS011;15592;53.656;7.276;2023-11-21T01:45:38;21.70;;;5.78;;
28335;SDS011;15592;53.656;7.276;2023-11-21T01:48:04;16.75;;;5.60;;
28335;SDS011;15592;53.656;7.276;2023-11-21T01:50:31;22.70;;;8.05;;
28335;SDS011;15592;53.656;7.276;2023-11-21T01:52:58;25.73;;;7.43;;
28335;SDS011;15592;53.656;7.276;2023-11-21T01:55:25;27.08;;;8.10;;
28335;SDS011;15592;53.656;7.276;2023-11-21T01:57:52;32.22;;;8.38;;
28335;SDS011;15592;53.656;7.276;2023-11-21T02:00:18;41.63;;;10.30;;
28335;SDS011;15592;53.656;7.276;2023-11-21T02:02:44;50.72;;;12.13;;
28335;SDS011;15592;53.656;7.276;2023-11-21T02:05:11;58.47;;;14.77;;
28335;SDS011;15592;53.656;7.276;2023-11-21T02:07:41;66.85;;;16.25;;
28335;SDS011;15592;53.656;7.276;2023-11-21T02:10:10;57.08;;;15.95;;
28335;SDS011;15592;53.656;7.276;2023-11-21T02:12:39;72.15;;;18.45;;
28335;SDS011;15592;53.656;7.276;2023-11-21T02:15:07;70.80;;;17.70;;
28335;SDS011;15592;53.656;7.276;2023-11-21T02:17:40;66.90;;;17.70;;
28335;SDS011;15592;53.656;7.276;2023-11-21T02:20:08;68.90;;;18.55;;
28335;SDS011;15592;53.656;7.276;2023-11-21T02:22:41;61.22;;;17.00;;
28335;SDS011;15592;53.656;7.276;2023-11-21T02:25:09;71.68;;;17.25;;
28335;SDS011;15592;53.656;7.276;2023-11-21T02:27:36;61.92;;;18.10;;
28335;SDS011;15592;53.656;7.276;2023-11-21T02:30:02;64.35;;;17.50;;
28335;SDS011;15592;53.656;7.276;2023-11-21T02:32:30;61.42;;;17.50;;
28335;SDS011;15592;53.656;7.276;2023-11-21T02:34:56;67.95;;;17.73;;
28335;SDS011;15592;53.656;7.276;2023-11-21T02:37:26;76.13;;;18.87;;
28335;SDS011;15592;53.656;7.276;2023-11-21T02:39:51;77.05;;;19.92;;
28335;SDS011;15592;53.656;7.276;2023-11-21T02:42:17;76.97;;;20.25;;
28335;SDS011;15592;53.656;7.276;2023-11-21T02:44:43;77.30;;;20.15;;
28335;SDS011;15592;53.656;7.276;2023-11-21T02:47:09;87.25;;;21.52;;
28335;SDS011;15592;53.656;7.276;2023-11-21T02:49:35;86.55;;;21.73;;
28335;SDS011;15592;53.656;7.276;2023-11-21T02:52:00;92.80;;;23.45;;
28335;SDS011;15592;53.656;7.276;2023-11-21T02:54:27;94.03;;;22.17;;
28335;SDS011;15592;53.656;7.276;2023-11-21T02:56:52;103.40;;;24.40;;
28335;SDS011;15592;53.656;7.276;2023-11-21T02:59:18;103.55;;;25.00;;
28335;SDS011;15592;53.656;7.276;2023-11-21T03:01:44;95.20;;;23.60;;
28335;SDS011;15592;53.656;7.276;2023-11-21T03:04:11;100.47;;;21.90;;
28335;SDS011;15592;53.656;7.276;2023-11-21T03:06:42;88.65;;;21.77;;
28335;SDS011;15592;53.656;7.276;2023-11-21T03:09:09;94.88;;;22.67;;
28335;SDS011;15592;53.656;7.276;2023-11-21T03:11:34;94.70;;;23.23;;
28335;SDS011;15592;53.656;7.276;2023-11-21T03:14:00;90.65;;;23.10;;
28335;SDS011;15592;53.656;7.276;2023-11-21T03:16:26;96.78;;;21.33;;
28335;SDS011;15592;53.656;7.276;2023-11-21T03:18:51;94.05;;;22.38;;
28335;SDS011;15592;53.656;7.276;2023-11-21T03:21:17;92.82;;;23.13;;
28335;SDS011;15592;53.656;7.276;2023-11-21T03:23:43;88.05;;;22.05;;
28335;SDS011;15592;53.656;7.276;2023-11-21T03:26:11;92.70;;;22.70;;
28335;SDS011;15592;53.656;7.276;2023-11-21T03:28:38;98.10;;;23.53;;
28335;SDS011;15592;53.656;7.276;2023-11-21T03:31:04;97.95;;;22.80;;
28335;SDS011;15592;53.656;7.276;2023-11-21T03:33:31;82.35;;;21.63;;
28335;SDS011;15592;53.656;7.276;2023-11-21T03:35:57;83.60;;;22.50;;
28335;SDS011;15592;53.656;7.276;2023-11-21T03:38:23;84.25;;;20.85;;
28335;SDS011;15592;53.656;7.276;2023-11-21T03:40:48;79.57;;;20.42;;
28335;SDS011;15592;53.656;7.276;2023-11-21T03:43:15;86.57;;;20.33;;
28335;SDS011;15592;53.656;7.276;2023-11-21T03:45:41;74.10;;;18.77;;
28335;SDS011;15592;53.656;7.276;2023-11-21T03:48:07;74.38;;;19.67;;
28335;SDS011;15592;53.656;7.276;2023-11-21T03:50:33;74.95;;;18.92;;
28335;SDS011;15592;53.656;7.276;2023-11-21T03:52:59;76.25;;;20.13;;
28335;SDS011;15592;53.656;7.276;2023-11-21T03:55:25;72.43;;;18.00;;
28335;SDS011;15592;53.656;7.276;2023-11-21T03:57:51;81.47;;;19.23;;
28335;SDS011;15592;53.656;7.276;2023-11-21T04:00:17;77.65;;;21.02;;
28335;SDS011;15592;53.656;7.276;2023-11-21T04:02:45;73.95;;;18.65;;
28335;SDS011;15592;53.656;7.276;2023-11-21T04:05:10;59.78;;;17.02;;
28335;SDS011;15592;53.656;7.276;2023-11-21T04:07:37;67.28;;;18.05;;
28335;SDS011;15592;53.656;7.276;2023-11-21T04:10:03;72.47;;;18.13;;
28335;SDS011;15592;53.656;7.276;2023-11-21T04:12:33;63.60;;;18.00;;
28335;SDS011;15592;53.656;7.276;2023-11-21T04:14:58;69.63;;;18.73;;
28335;SDS011;15592;53.656;7.276;2023-11-21T04:17:24;52.28;;;17.10;;
28335;SDS011;15592;53.656;7.276;2023-11-21T04:19:50;71.40;;;18.00;;
28335;SDS011;15592;53.656;7.276;2023-11-21T04:22:15;66.32;;;19.58;;
28335;SDS011;15592;53.656;7.276;2023-11-21T04:24:41;71.03;;;18.17;;
28335;SDS011;15592;53.656;7.276;2023-11-21T04:27:06;61.47;;;19.20;;
28335;SDS011;15592;53.656;7.276;2023-11-21T04:29:32;63.42;;;18.52;;
28335;SDS011;15592;53.656;7.276;2023-11-21T04:31:58;64.30;;;18.92;;
28335;SDS011;15592;53.656;7.276;2023-11-21T04:34:24;66.05;;;18.92;;
28335;SDS011;15592;53.656;7.276;2023-11-21T04:36:50;67.95;;;18.80;;
28335;SDS011;15592;53.656;7.276;2023-11-21T04:39:15;65.05;;;18.65;;
28335;SDS011;15592;53.656;7.276;2023-11-21T04:41:41;66.35;;;19.52;;
28335;SDS011;15592;53.656;7.276;2023-11-21T04:44:07;66.75;;;20.65;;
28335;SDS011;15592;53.656;7.276;2023-11-21T04:46:33;64.57;;;19.67;;
28335;SDS011;15592;53.656;7.276;2023-11-21T04:48:59;58.20;;;17.55;;
28335;SDS011;15592;53.656;7.276;2023-11-21T04:51:24;63.55;;;19.50;;
28335;SDS011;15592;53.656;7.276;2023-11-21T04:53:50;59.85;;;18.35;;
28335;SDS011;15592;53.656;7.276;2023-11-21T04:56:16;61.70;;;19.10;;
28335;SDS011;15592;53.656;7.276;2023-11-21T04:58:41;66.00;;;18.70;;
28335;SDS011;15592;53.656;7.276;2023-11-21T05:01:07;59.13;;;18.50;;
28335;SDS011;15592;53.656;7.276;2023-11-21T05:03:33;57.88;;;17.35;;
28335;SDS011;15592;53.656;7.276;2023-11-21T05:05:59;57.72;;;17.02;;
28335;SDS011;15592;53.656;7.276;2023-11-21T05:08:25;55.85;;;15.95;;
28335;SDS011;15592;53.656;7.276;2023-11-21T05:10:51;60.78;;;17.10;;
28335;SDS011;15592;53.656;7.276;2023-11-21T05:13:17;67.93;;;17.45;;
28335;SDS011;15592;53.656;7.276;2023-11-21T05:15:44;64.80;;;19.00;;
28335;SDS011;15592;53.656;7.276;2023-11-21T05:18:10;67.47;;;19.15;;
28335;SDS011;15592;53.656;7.276;2023-11-21T05:20:36;70.93;;;20.73;;
28335;SDS011;15592;53.656;7.276;2023-11-21T05:23:04;92.32;;;23.75;;
28335;SDS011;15592;53.656;7.276;2023-11-21T05:25:30;93.53;;;24.50;;
28335;SDS011;15592;53.656;7.276;2023-11-21T05:27:55;110.18;;;25.83;;
28335;SDS011;15592;53.656;7.276;2023-11-21T05:30:21;87.65;;;24.42;;
28335;SDS011;15592;53.656;7.276;2023-11-21T05:32:47;84.68;;;24.38;;
28335;SDS011;15592;53.656;7.276;2023-11-21T05:35:14;88.00;;;24.58;;
28335;SDS011;15592;53.656;7.276;2023-11-21T05:37:41;82.20;;;23.00;;
28335;SDS011;15592;53.656;7.276;2023-11-21T05:40:07;80.57;;;23.58;;
28335;SDS011;15592;53.656;7.276;2023-11-21T05:42:35;88.13;;;26.40;;
28335;SDS011;15592;53.656;7.276;2023-11-21T05:45:01;85.00;;;27.33;;
28335;SDS011;15592;53.656;7.276;2023-11-21T05:47:40;104.88;;;30.25;;
28335;SDS011;15592;53.656;7.276;2023-11-21T05:50:16;111.57;;;32.30;;
28335;SDS011;15592;53.656;7.276;2023-11-21T05:52:44;110.93;;;30.95;;
28335;SDS011;15592;53.656;7.276;2023-11-21T05:55:13;107.15;;;31.65;;
28335;SDS011;15592;53.656;7.276;2023-11-21T05:57:40;110.07;;;31.17;;
28335;SDS011;15592;53.656;7.276;2023-11-21T06:00:10;89.20;;;28.88;;
28335;SDS011;15592;53.656;7.276;2023-11-21T06:02:43;92.68;;;29.33;;
28335;SDS011;15592;53.656;7.276;2023-11-21T06:05:10;92.40;;;28.10;;
28335;SDS011;15592;53.656;7.276;2023-11-21T06:07:36;93.32;;;28.92;;
28335;SDS011;15592;53.656;7.276;2023-11-21T06:10:03;83.50;;;27.90;;
28335;SDS011;15592;53.656;7.276;2023-11-21T06:12:36;76.80;;;25.67;;
28335;SDS011;15592;53.656;7.276;2023-11-21T06:15:03;83.25;;;26.38;;
28335;SDS011;15592;53.656;7.276;2023-11-21T06:17:31;85.72;;;26.88;;
28335;SDS011;15592;53.656;7.276;2023-11-21T06:19:56;89.07;;;28.20;;
28335;SDS011;15592;53.656;7.276;2023-11-21T06:22:22;85.60;;;28.45;;
28335;SDS011;15592;53.656;7.276;2023-11-21T06:24:48;80.25;;;25.67;;
28335;SDS011;15592;53.656;7.276;2023-11-21T06:27:14;83.30;;;26.20;;
28335;SDS011;15592;53.656;7.276;2023-11-21T06:29:40;80.38;;;25.67;;
28335;SDS011;15592;53.656;7.276;2023-11-21T06:32:07;74.47;;;25.35;;
28335;SDS011;15592;53.656;7.276;2023-11-21T06:34:33;75.35;;;24.85;;
28335;SDS011;15592;53.656;7.276;2023-11-21T06:36:59;75.35;;;24.45;;
28335;SDS011;15592;53.656;7.276;2023-11-21T06:39:24;70.72;;;24.73;;
28335;SDS011;15592;53.656;7.276;2023-11-21T06:41:50;67.38;;;22.23;;
28335;SDS011;15592;53.656;7.276;2023-11-21T06:44:15;71.00;;;21.65;;
28335;SDS011;15592;53.656;7.276;2023-11-21T06:46:41;63.28;;;20.38;;
28335;SDS011;15592;53.656;7.276;2023-11-21T06:49:07;64.53;;;20.33;;
28335;SDS011;15592;53.656;7.276;2023-11-21T06:51:33;58.53;;;19.58;;
28335;SDS011;15592;53.656;7.276;2023-11-21T06:53:59;67.35;;;21.17;;
28335;SDS011;15592;53.656;7.276;2023-11-21T06:56:25;65.65;;;20.35;;
28335;SDS011;15592;53.656;7.276;2023-11-21T06:58:50;64.13;;;19.70;;
28335;SDS011;15592;53.656;7.276;2023-11-21T07:01:19;56.72;;;18.60;;
28335;SDS011;15592;53.656;7.276;2023-11-21T07:03:44;62.10;;;18.98;;
28335;SDS011;15592;53.656;7.276;2023-11-21T07:06:10;60.90;;;18.65;;
28335;SDS011;15592;53.656;7.276;2023-11-21T07:08:36;72.38;;;20.13;;
28335;SDS011;15592;53.656;7.276;2023-11-21T07:11:03;70.45;;;20.20;;
28335;SDS011;15592;53.656;7.276;2023-11-21T07:13:29;64.88;;;20.38;;
28335;SDS011;15592;53.656;7.276;2023-11-21T07:15:55;68.22;;;19.65;;
28335;SDS011;15592;53.656;7.276;2023-11-21T07:18:21;67.75;;;19.65;;
28335;SDS011;15592;53.656;7.276;2023-11-21T07:20:48;69.03;;;19.48;;
28335;SDS011;15592;53.656;7.276;2023-11-21T07:23:13;57.55;;;19.15;;
28335;SDS011;15592;53.656;7.276;2023-11-21T07:25:40;58.85;;;18.42;;
28335;SDS011;15592;53.656;7.276;2023-11-21T07:28:06;57.72;;;18.65;;
28335;SDS011;15592;53.656;7.276;2023-11-21T07:30:32;59.65;;;17.95;;
28335;SDS011;15592;53.656;7.276;2023-11-21T07:32:58;55.03;;;18.88;;
28335;SDS011;15592;53.656;7.276;2023-11-21T07:35:23;57.20;;;18.08;;
28335;SDS011;15592;53.656;7.276;2023-11-21T07:37:49;56.58;;;18.00;;
28335;SDS011;15592;53.656;7.276;2023-11-21T07:40:15;59.00;;;17.58;;
28335;SDS011;15592;53.656;7.276;2023-11-21T07:42:41;56.72;;;17.63;;
28335;SDS011;15592;53.656;7.276;2023-11-21T07:45:07;52.67;;;18.13;;
28335;SDS011;15592;53.656;7.276;2023-11-21T07:47:33;55.30;;;16.98;;
28335;SDS011;15592;53.656;7.276;2023-11-21T07:50:00;52.08;;;18.27;;
28335;SDS011;15592;53.656;7.276;2023-11-21T07:52:28;60.90;;;18.43;;
28335;SDS011;15592;53.656;7.276;2023-11-21T07:54:54;56.50;;;18.13;;
28335;SDS011;15592;53.656;7.276;2023-11-21T07:57:20;50.28;;;16.90;;
28335;SDS011;15592;53.656;7.276;2023-11-21T07:59:45;48.85;;;16.65;;
28335;SDS011;15592;53.656;7.276;2023-11-21T08:02:11;47.22;;;15.73;;
28335;SDS011;15592;53.656;7.276;2023-11-21T08:04:37;47.17;;;16.33;;
28335;SDS011;15592;53.656;7.276;2023-11-21T08:07:03;53.67;;;15.93;;
28335;SDS011;15592;53.656;7.276;2023-11-21T08:09:28;48.05;;;16.70;;
28335;SDS011;15592;53.656;7.276;2023-11-21T08:11:55;48.92;;;15.50;;
28335;SDS011;15592;53.656;7.276;2023-11-21T08:14:21;46.58;;;15.73;;
28335;SDS011;15592;53.656;7.276;2023-11-21T08:16:47;50.65;;;15.82;;
28335;SDS011;15592;53.656;7.276;2023-11-21T08:19:12;52.80;;;16.77;;
28335;SDS011;15592;53.656;7.276;2023-11-21T08:21:38;59.35;;;18.15;;
28335;SDS011;15592;53.656;7.276;2023-11-21T08:24:05;62.58;;;18.80;;
28335;SDS011;15592;53.656;7.276;2023-11-21T08:26:35;59.53;;;20.27;;
28335;SDS011;15592;53.656;7.276;2023-11-21T08:29:01;59.88;;;19.10;;
28335;SDS011;15592;53.656;7.276;2023-11-21T08:31:27;65.78;;;20.05;;
28335;SDS011;15592;53.656;7.276;2023-11-21T08:33:53;59.35;;;18.73;;
28335;SDS011;15592;53.656;7.276;2023-11-21T08:36:20;64.30;;;17.83;;
28335;SDS011;15592;53.656;7.276;2023-11-21T08:38:48;60.55;;;17.35;;
28335;SDS011;15592;53.656;7.276;2023-11-21T08:41:14;52.28;;;16.17;;
28335;SDS011;15592;53.656;7.276;2023-11-21T08:43:40;39.58;;;13.80;;
28335;SDS011;15592;53.656;7.276;2023-11-21T08:46:06;35.90;;;13.85;;
28335;SDS011;15592;53.656;7.276;2023-11-21T08:48:33;35.20;;;12.98;;
28335;SDS011;15592;53.656;7.276;2023-11-21T08:51:01;34.60;;;13.52;;
28335;SDS011;15592;53.656;7.276;2023-11-21T08:53:26;39.90;;;13.90;;
28335;SDS011;15592;53.656;7.276;2023-11-21T08:55:52;46.45;;;15.32;;
28335;SDS011;15592;53.656;7.276;2023-11-21T08:58:19;38.00;;;14.60;;
28335;SDS011;15592;53.656;7.276;2023-11-21T09:00:44;48.13;;;15.25;;
28335;SDS011;15592;53.656;7.276;2023-11-21T09:03:11;45.17;;;15.70;;
28335;SDS011;15592;53.656;7.276;2023-11-21T09:05:38;45.63;;;15.15;;
28335;SDS011;15592;53.656;7.276;2023-11-21T09:08:04;43.72;;;14.98;;
28335;SDS011;15592;53.656;7.276;2023-11-21T09:10:30;42.45;;;15.75;;
28335;SDS011;15592;53.656;7.276;2023-11-21T09:12:56;55.50;;;17.17;;
28335;SDS011;15592;53.656;7.276;2023-11-21T09:15:22;48.50;;;15.82;;
28335;SDS011;15592;53.656;7.276;2023-11-21T09:17:47;51.80;;;18.52;;
28335;SDS011;15592;53.656;7.276;2023-11-21T09:20:13;50.53;;;16.88;;
28335;SDS011;15592;53.656;7.276;2023-11-21T09:22:40;51.90;;;17.35;;
28335;SDS011;15592;53.656;7.276;2023-11-21T09:25:06;61.75;;;18.10;;
28335;SDS011;15592;53.656;7.276;2023-11-21T09:27:33;55.83;;;17.90;;
28335;SDS011;15592;53.656;7.276;2023-11-21T09:30:00;54.47;;;18.35;;
28335;SDS011;15592;53.656;7.276;2023-11-21T09:32:26;51.63;;;17.42;;
28335;SDS011;15592;53.656;7.276;2023-11-21T09:34:52;60.03;;;17.88;;
28335;SDS011;15592;53.656;7.276;2023-11-21T09:37:20;55.80;;;16.77;;
28335;SDS011;15592;53.656;7.276;2023-11-21T09:39:46;58.15;;;17.67;;
28335;SDS011;15592;53.656;7.276;2023-11-21T09:42:13;52.65;;;17.33;;
28335;SDS011;15592;53.656;7.276;2023-11-21T09:44:54;56.08;;;18.23;;
28335;SDS011;15592;53.656;7.276;2023-11-21T09:47:29;58.92;;;18.55;;
28335;SDS011;15592;53.656;7.276;2023-11-21T09:49:56;63.53;;;18.40;;
28335;SDS011;15592;53.656;7.276;2023-11-21T09:52:26;53.95;;;18.50;;
28335;SDS011;15592;53.656;7.276;2023-11-21T09:54:53;49.20;;;18.00;;
28335;SDS011;15592;53.656;7.276;2023-11-21T09:57:22;55.30;;;16.58;;
28335;SDS011;15592;53.656;7.276;2023-11-21T09:59:52;42.00;;;14.70;;
28335;SDS011;15592;53.656;7.276;2023-11-21T10:02:27;29.30;;;12.77;;
28335;SDS011;15592;53.656;7.276;2023-11-21T10:04:59;32.70;;;12.52;;
28335;SDS011;15592;53.656;7.276;2023-11-21T10:07:25;27.42;;;11.50;;
28335;SDS011;15592;53.656;7.276;2023-11-21T10:09:53;31.52;;;12.30;;
28335;SDS011;15592;53.656;7.276;2023-11-21T10:12:20;30.92;;;12.48;;
28335;SDS011;15592;53.656;7.276;2023-11-21T10:14:48;30.08;;;13.40;;
28335;SDS011;15592;53.656;7.276;2023-11-21T10:17:17;34.15;;;13.30;;
28335;SDS011;15592;53.656;7.276;2023-11-21T10:19:46;34.83;;;13.57;;
28335;SDS011;15592;53.656;7.276;2023-11-21T10:22:13;34.70;;;12.98;;
28335;SDS011;15592;53.656;7.276;2023-11-21T10:24:40;33.60;;;13.10;;
28335;SDS011;15592;53.656;7.276;2023-11-21T10:27:07;31.15;;;13.70;;
28335;SDS011;15592;53.656;7.276;2023-11-21T10:29:33;31.85;;;12.95;;
28335;SDS011;15592;53.656;7.276;2023-11-21T10:32:01;37.72;;;13.40;;
28335;SDS011;15592;53.656;7.276;2023-11-21T10:34:27;36.15;;;13.02;;
28335;SDS011;15592;53.656;7.276;2023-11-21T10:36:53;37.60;;;13.13;;
28335;SDS011;15592;53.656;7.276;2023-11-21T10:39:21;32.95;;;13.00;;
28335;SDS011;15592;53.656;7.276;2023-11-21T10:41:48;26.20;;;12.80;;
28335;SDS011;15592;53.656;7.276;2023-11-21T10:44:15;30.90;;;11.93;;
28335;SDS011;15592;53.656;7.276;2023-11-21T10:46:52;28.83;;;11.60;;
28335;SDS011;15592;53.656;7.276;2023-11-21T10:49:22;22.95;;;10.93;;
28335;SDS011;15592;53.656;7.276;2023-11-21T10:51:50;28.63;;;10.90;;
28335;SDS011;15592;53.656;7.276;2023-11-21T10:54:18;24.90;;;11.93;;
28335;SDS011;15592;53.656;7.276;2023-11-21T10:56:45;31.80;;;12.43;;
28335;SDS011;15592;53.656;7.276;2023-11-21T11:01:45;20.92;;;9.55;;
28335;SDS011;15592;53.656;7.276;2023-11-21T11:04:13;21.80;;;9.55;;
28335;SDS011;15592;53.656;7.276;2023-11-21T11:06:44;22.60;;;9.88;;
28335;SDS011;15592;53.656;7.276;2023-11-21T11:09:15;23.45;;;9.95;;
28335;SDS011;15592;53.656;7.276;2023-11-21T11:11:42;24.02;;;10.35;;
28335;SDS011;15592;53.656;7.276;2023-11-21T11:14:12;26.63;;;10.48;;
28335;SDS011;15592;53.656;7.276;2023-11-21T11:16:39;26.58;;;11.18;;
28335;SDS011;15592;53.656;7.276;2023-11-21T11:19:10;28.10;;;11.30;;
28335;SDS011;15592;53.656;7.276;2023-11-21T11:27:12;17.05;;;8.80;;
28335;SDS011;15592;53.656;7.276;2023-11-21T11:35:14;16.38;;;7.68;;
28335;SDS011;15592;53.656;7.276;2023-11-21T11:37:44;18.80;;;7.72;;
28335;SDS011;15592;53.656;7.276;2023-11-21T11:40:13;16.13;;;7.57;;
28335;SDS011;15592;53.656;7.276;2023-11-21T11:42:40;14.93;;;7.70;;
28335;SDS011;15592;53.656;7.276;2023-11-21T11:45:32;14.40;;;7.25;;
28335;SDS011;15592;53.656;7.276;2023-11-21T11:48:00;14.38;;;6.88;;
28335;SDS011;15592;53.656;7.276;2023-11-21T11:50:26;17.58;;;7.13;;
28335;SDS011;15592;53.656;7.276;2023-11-21T11:52:52;12.00;;;6.93;;
28335;SDS011;15592;53.656;7.276;2023-11-21T11:55:23;15.05;;;7.03;;
28335;SDS011;15592;53.656;7.276;2023-11-21T11:57:51;16.25;;;6.53;;
28335;SDS011;15592;53.656;7.276;2023-11-21T12:00:20;10.50;;;6.60;;
28335;SDS011;15592;53.656;7.276;2023-11-21T12:02:55;14.25;;;6.60;;
28335;SDS011;15592;53.656;7.276;2023-11-21T12:05:23;11.77;;;6.72;;
28335;SDS011;15592;53.656;7.276;2023-11-21T12:07:56;14.88;;;6.75;;
28335;SDS011;15592;53.656;7.276;2023-11-21T12:10:28;17.25;;;6.82;;
28335;SDS011;15592;53.656;7.276;2023-11-21T12:12:59;13.48;;;7.00;;
28335;SDS011;15592;53.656;7.276;2023-11-21T12:15:26;14.77;;;7.57;;
28335;SDS011;15592;53.656;7.276;2023-11-21T12:17:56;15.68;;;7.85;;
28335;SDS011;15592;53.656;7.276;2023-11-21T12:20:23;13.40;;;7.55;;
28335;SDS011;15592;53.656;7.276;2023-11-21T12:22:50;11.27;;;7.30;;
28335;SDS011;15592;53.656;7.276;2023-11-21T12:25:17;15.60;;;7.68;;
28335;SDS011;15592;53.656;7.276;2023-11-21T12:27:45;15.07;;;7.00;;
28335;SDS011;15592;53.656;7.276;2023-11-21T12:30:14;15.55;;;7.85;;
28335;SDS011;15592;53.656;7.276;2023-11-21T12:32:41;14.52;;;7.45;;
28335;SDS011;15592;53.656;7.276;2023-11-21T12:35:11;18.40;;;8.10;;
28335;SDS011;15592;53.656;7.276;2023-11-21T12:40:07;16.35;;;7.75;;
28335;SDS011;15592;53.656;7.276;2023-11-21T12:42:36;13.68;;;7.75;;
28335;SDS011;15592;53.656;7.276;2023-11-21T12:47:48;16.67;;;6.95;;
28335;SDS011;15592;53.656;7.276;2023-11-21T12:50:20;18.65;;;8.40;;
28335;SDS011;15592;53.656;7.276;2023-11-21T12:52:53;15.55;;;6.80;;
28335;SDS011;15592;53.656;7.276;2023-11-21T12:55:22;12.93;;;6.85;;
28335;SDS011;15592;53.656;7.276;2023-11-21T12:57:52;13.73;;;7.00;;
28335;SDS011;15592;53.656;7.276;2023-11-21T13:00:33;11.20;;;6.82;;
28335;SDS011;15592;53.656;7.276;2023-11-21T13:03:02;10.32;;;7.00;;
28335;SDS011;15592;53.656;7.276;2023-11-21T13:05:30;17.20;;;7.32;;
28335;SDS011;15592;53.656;7.276;2023-11-21T13:08:03;14.15;;;7.95;;
28335;SDS011;15592;53.656;7.276;2023-11-21T13:10:33;15.75;;;8.43;;
28335;SDS011;15592;53.656;7.276;2023-11-21T13:13:01;15.63;;;8.13;;
28335;SDS011;15592;53.656;7.276;2023-11-21T13:15:30;15.43;;;7.75;;
28335;SDS011;15592;53.656;7.276;2023-11-21T13:17:58;13.18;;;7.55;;
28335;SDS011;15592;53.656;7.276;2023-11-21T13:20:27;18.67;;;7.95;;
28335;SDS011;15592;53.656;7.276;2023-11-21T13:22:55;20.15;;;9.05;;
28335;SDS011;15592;53.656;7.276;2023-11-21T13:25:26;14.32;;;8.65;;
28335;SDS011;15592;53.656;7.276;2023-11-21T13:28:01;20.25;;;8.65;;
28335;SDS011;15592;53.656;7.276;2023-11-21T13:30:28;17.48;;;8.77;;
28335;SDS011;15592;53.656;7.276;2023-11-21T13:32:58;15.02;;;8.30;;
28335;SDS011;15592;53.656;7.276;2023-11-21T13:35:29;13.00;;;8.75;;
28335;SDS011;15592;53.656;7.276;2023-11-21T13:38:03;13.18;;;8.98;;
28335;SDS011;15592;53.656;7.276;2023-11-21T13:40:31;15.02;;;8.77;;
28335;SDS011;15592;53.656;7.276;2023-11-21T13:42:59;14.55;;;8.05;;
28335;SDS011;15592;53.656;7.276;2023-11-21T13:45:29;14.45;;;8.45;;
28335;SDS011;15592;53.656;7.276;2023-11-21T13:47:56;13.30;;;8.80;;
28335;SDS011;15592;53.656;7.276;2023-11-21T13:50:24;17.85;;;9.30;;
28335;SDS011;15592;53.656;7.276;2023-11-21T13:52:57;14.32;;;8.77;;
28335;SDS011;15592;53.656;7.276;2023-11-21T13:55:26;19.52;;;9.75;;
28335;SDS011;15592;53.656;7.276;2023-11-21T13:57:52;15.43;;;8.73;;
28335;SDS011;15592;53.656;7.276;2023-11-21T14:00:18;16.70;;;8.25;;
28335;SDS011;15592;53.656;7.276;2023-11-21T14:03:02;13.77;;;8.10;;
28335;SDS011;15592;53.656;7.276;2023-11-21T14:05:33;17.67;;;9.32;;
28335;SDS011;15592;53.656;7.276;2023-11-21T14:07:59;18.85;;;11.05;;
28335;SDS011;15592;53.656;7.276;2023-11-21T14:10:30;21.02;;;10.30;;
28335;SDS011;15592;53.656;7.276;2023-11-21T14:13:05;18.30;;;10.23;;
28335;SDS011;15592;53.656;7.276;2023-11-21T14:15:31;19.73;;;10.95;;
28335;SDS011;15592;53.656;7.276;2023-11-21T14:18:02;19.20;;;10.32;;
28335;SDS011;15592;53.656;7.276;2023-11-21T14:20:32;19.75;;;10.30;;
28335;SDS011;15592;53.656;7.276;2023-11-21T14:22:58;23.65;;;11.52;;
28335;SDS011;15592;53.656;7.276;2023-11-21T14:25:24;18.77;;;11.32;;
28335;SDS011;15592;53.656;7.276;2023-11-21T14:27:49;21.92;;;11.93;;
28335;SDS011;15592;53.656;7.276;2023-11-21T14:30:15;26.08;;;13.52;;
28335;SDS011;15592;53.656;7.276;2023-11-21T14:32:44;23.98;;;14.00;;
28335;SDS011;15592;53.656;7.276;2023-11-21T14:35:09;23.10;;;13.70;;
28335;SDS011;15592;53.656;7.276;2023-11-21T14:37:35;29.70;;;14.02;;
28335;SDS011;15592;53.656;7.276;2023-11-21T14:40:01;25.13;;;13.82;;
28335;SDS011;15592;53.656;7.276;2023-11-21T14:42:29;21.98;;;12.52;;
28335;SDS011;15592;53.656;7.276;2023-11-21T14:44:55;22.35;;;13.48;;